createdAt,value
2022-10-14T00:01:06.503Z,43.50
2022-10-14T00:03:41.435Z,38.25
2022-10-14T00:06:15.675Z,38.00
2022-10-14T00:08:48.848Z,41.00
2022-10-14T00:11:22.735Z,42.25
2022-10-14T00:13:57.084Z,42.25
2022-10-14T00:16:31.865Z,42.75
2022-10-14T00:19:06.530Z,42.75
2022-10-14T00:21:40.114Z,42.75
2022-10-14T00:24:14.985Z,42.50
2022-10-14T00:26:48.241Z,43.00
2022-10-14T00:29:21.703Z,40.50
2022-10-14T00:31:55.171Z,38.25
2022-10-14T00:34:30.567Z,39.50
2022-10-14T00:37:04.310Z,40.75
2022-10-14T00:39:36.105Z,43.00
2022-10-14T00:42:08.746Z,39.40
2022-10-14T00:45:04.204Z,39.20
2022-10-14T00:47:40.880Z,36.25
2022-10-14T00:50:18.289Z,42.00
2022-10-14T00:52:51.136Z,39.25
2022-10-14T00:55:23.507Z,38.25
2022-10-14T00:57:55.834Z,43.00
2022-10-14T01:00:27.736Z,44.75
2022-10-14T01:03:00.221Z,47.60
2022-10-14T01:05:39.739Z,45.75
2022-10-14T01:08:18.860Z,39.80
2022-10-14T01:10:58.092Z,40.50
2022-10-14T01:13:36.007Z,45.33
2022-10-14T01:16:20.496Z,42.25
2022-10-14T01:19:07.813Z,40.75
2022-10-14T01:21:48.293Z,42.00
2022-10-14T01:24:45.240Z,42.00
2022-10-14T01:27:55.811Z,42.75
2022-10-14T01:30:33.547Z,41.00
2022-10-14T01:33:16.469Z,55.00
2022-10-14T01:36:00.081Z,31.80
2022-10-14T01:38:37.360Z,39.50
2022-10-14T01:41:17.973Z,43.00
2022-10-14T01:43:53.950Z,34.75
2022-10-14T01:46:30.440Z,43.25
2022-10-14T01:49:08.350Z,44.75
2022-10-14T01:51:47.250Z,41.00
2022-10-14T01:54:26.618Z,41.25
2022-10-14T01:57:04.188Z,41.75
2022-10-14T01:59:38.899Z,43.00
2022-10-14T02:02:14.853Z,39.50
2022-10-14T02:04:46.671Z,38.00
2022-10-14T02:07:27.239Z,35.25
2022-10-14T02:10:06.339Z,42.75
2022-10-14T02:12:44.162Z,41.75
2022-10-14T02:15:24.117Z,43.00
2022-10-14T02:18:05.021Z,42.00
2022-10-14T02:20:42.577Z,43.50
2022-10-14T02:23:19.677Z,43.50
2022-10-14T02:25:54.342Z,43.50
2022-10-14T02:28:30.458Z,43.50
2022-10-14T02:31:08.096Z,44.75
2022-10-14T02:33:46.108Z,45.25
2022-10-14T02:36:21.307Z,47.25
2022-10-14T02:38:56.509Z,44.25
2022-10-14T02:41:34.500Z,45.50
2022-10-14T02:44:09.807Z,43.75
2022-10-14T02:46:43.770Z,45.00
2022-10-14T02:49:17.429Z,45.25
2022-10-14T02:51:50.149Z,45.00
2022-10-14T02:54:21.873Z,40.75
2022-10-14T02:56:53.719Z,40.50
2022-10-14T02:59:29.076Z,43.50
2022-10-14T03:02:01.659Z,42.50
2022-10-14T03:04:35.932Z,42.00
2022-10-14T03:07:09.395Z,42.50
2022-10-14T03:09:46.984Z,43.00
2022-10-14T03:12:19.988Z,42.25
2022-10-14T03:14:53.554Z,44.00
2022-10-14T03:17:28.456Z,43.75
2022-10-14T03:20:07.083Z,41.25
2022-10-14T03:22:47.197Z,43.25
2022-10-14T03:25:21.062Z,44.25
2022-10-14T03:28:10.091Z,43.50
2022-10-14T03:30:49.746Z,42.75
2022-10-14T03:33:35.583Z,40.00
2022-10-14T03:36:16.786Z,43.00
2022-10-14T03:38:56.669Z,44.50
2022-10-14T03:41:48.747Z,41.00
2022-10-14T03:44:26.158Z,43.00
2022-10-14T03:47:17.448Z,42.75
2022-10-14T03:49:50.253Z,42.00
2022-10-14T03:52:34.199Z,43.50
2022-10-14T03:55:20.754Z,42.25
2022-10-14T03:57:55.116Z,41.75
2022-10-14T04:00:27.921Z,43.25
2022-10-14T04:03:13.925Z,44.75
2022-10-14T04:05:47.854Z,43.00
2022-10-14T04:08:24.654Z,44.50
2022-10-14T04:11:02.281Z,44.75
2022-10-14T04:13:40.144Z,40.50
2022-10-14T04:16:13.727Z,43.75
2022-10-14T04:19:21.448Z,43.75
2022-10-14T04:21:54.285Z,45.00
2022-10-14T04:24:30.310Z,41.00
2022-10-14T04:27:03.858Z,45.00
2022-10-14T04:29:58.757Z,42.00
2022-10-14T04:32:37.629Z,43.75
2022-10-14T04:35:12.419Z,43.25
2022-10-14T04:37:48.816Z,44.00
2022-10-14T04:40:28.141Z,44.00
2022-10-14T04:43:02.557Z,41.25
2022-10-14T04:45:40.426Z,43.50
2022-10-14T04:48:15.631Z,42.00
2022-10-14T04:50:48.485Z,39.50
2022-10-14T04:53:34.758Z,44.00
2022-10-14T04:56:26.745Z,41.00
2022-10-14T04:59:04.590Z,40.25
2022-10-14T05:01:54.622Z,41.25
2022-10-14T05:04:31.784Z,42.50
2022-10-14T05:07:05.750Z,40.25
2022-10-14T05:09:38.947Z,40.00
2022-10-14T05:12:24.829Z,38.75
2022-10-14T05:15:02.950Z,40.00
2022-10-14T05:17:40.877Z,38.00
2022-10-14T05:20:13.777Z,39.00
2022-10-14T05:22:49.560Z,27.25
2022-10-14T05:25:22.388Z,30.25
2022-10-14T05:27:56.843Z,26.25
2022-10-14T05:30:34.525Z,39.75
2022-10-14T05:33:10.908Z,39.00
2022-10-14T05:35:58.707Z,35.75
2022-10-14T05:38:36.574Z,40.25
2022-10-14T05:41:09.578Z,39.50
2022-10-14T05:43:44.653Z,39.75
2022-10-14T05:46:16.817Z,38.00
2022-10-14T05:48:53.818Z,37.00
2022-10-14T05:51:25.962Z,37.25
2022-10-14T05:54:05.402Z,38.00
2022-10-14T05:56:37.779Z,36.25
2022-10-14T05:59:13.554Z,37.75
2022-10-14T06:01:46.220Z,34.75
2022-10-14T06:04:21.882Z,37.50
2022-10-14T06:06:53.776Z,35.75
2022-10-14T06:09:26.359Z,35.00
2022-10-14T06:11:58.704Z,36.25
2022-10-14T06:14:31.919Z,40.00
2022-10-14T06:17:04.185Z,38.75
2022-10-14T06:19:37.327Z,38.50
2022-10-14T06:22:09.930Z,39.75
2022-10-14T06:24:41.497Z,39.50
2022-10-14T06:27:13.559Z,36.25
2022-10-14T06:29:48.361Z,38.00
2022-10-14T06:32:20.459Z,36.50
2022-10-14T06:34:52.234Z,36.75
2022-10-14T06:37:24.538Z,35.25
2022-10-14T06:39:56.632Z,39.50
2022-10-14T06:42:28.623Z,37.75
2022-10-14T06:45:07.548Z,31.33
2022-10-14T06:47:39.673Z,37.75
2022-10-14T06:50:12.054Z,37.25
2022-10-14T06:52:43.849Z,32.75
2022-10-14T06:55:16.638Z,27.50
2022-10-14T06:57:49.008Z,34.75
2022-10-14T07:00:22.760Z,42.75
2022-10-14T07:02:54.941Z,40.00
2022-10-14T07:05:27.111Z,39.75
2022-10-14T07:10:37.948Z,39.50
2022-10-14T07:13:10.508Z,38.50
2022-10-14T07:15:44.096Z,38.75
2022-10-14T07:18:16.379Z,38.50
2022-10-14T07:20:48.413Z,37.25
2022-10-14T07:23:20.790Z,40.25
2022-10-14T07:25:52.651Z,38.25
2022-10-14T07:28:25.069Z,36.50
2022-10-14T07:31:06.400Z,39.00
2022-10-14T07:33:43.409Z,40.00
2022-10-14T07:36:20.041Z,38.00
2022-10-14T07:38:55.116Z,41.00
2022-10-14T07:41:29.984Z,38.00
2022-10-14T07:44:07.059Z,39.75
2022-10-14T07:46:42.776Z,41.00
2022-10-14T07:49:18.013Z,41.00
2022-10-14T07:51:50.270Z,42.25
2022-10-14T07:54:25.327Z,41.00
2022-10-14T07:56:57.261Z,33.75
2022-10-14T07:59:29.753Z,36.50
2022-10-14T08:02:03.388Z,31.00
2022-10-14T08:04:35.563Z,44.40
2022-10-14T08:07:07.767Z,36.60
2022-10-14T08:09:40.167Z,30.50
2022-10-14T08:12:11.986Z,31.00
2022-10-14T08:14:44.241Z,34.50
2022-10-14T08:17:17.784Z,33.25
2022-10-14T08:19:49.606Z,54.80
2022-10-14T08:22:22.534Z,38.25
2022-10-14T08:24:54.886Z,34.00
2022-10-14T08:27:28.111Z,37.75
2022-10-14T08:30:00.641Z,43.00
2022-10-14T08:32:34.391Z,44.25
2022-10-14T08:35:06.506Z,41.00
2022-10-14T08:37:39.378Z,40.25
2022-10-14T08:40:14.702Z,42.00
2022-10-14T08:42:54.539Z,41.50
2022-10-14T08:45:34.003Z,40.25
2022-10-14T08:48:14.331Z,40.25
2022-10-14T08:50:52.474Z,44.75
2022-10-14T08:53:29.730Z,41.00
2022-10-14T08:56:04.957Z,43.00
2022-10-14T08:58:41.610Z,42.00
2022-10-14T09:01:22.851Z,42.25
2022-10-14T09:04:00.450Z,47.00
2022-10-14T09:06:34.214Z,44.00
2022-10-14T09:09:12.968Z,43.75
2022-10-14T09:11:48.022Z,44.50
2022-10-14T09:14:26.043Z,44.00
2022-10-14T09:17:03.281Z,43.75
2022-10-14T09:19:43.436Z,44.00
2022-10-14T09:22:18.386Z,38.50
2022-10-14T09:24:51.449Z,40.75
2022-10-14T09:27:25.842Z,40.00
2022-10-14T09:30:02.841Z,40.75
2022-10-14T09:32:40.972Z,42.25
2022-10-14T09:35:26.262Z,40.50
2022-10-14T09:37:58.115Z,39.00
2022-10-14T09:40:35.359Z,41.50
2022-10-14T09:43:18.380Z,44.00
2022-10-14T09:45:58.125Z,39.75
2022-10-14T09:48:39.235Z,43.25
2022-10-14T09:51:21.871Z,39.00
2022-10-14T09:53:56.764Z,39.00
2022-10-14T09:56:38.916Z,40.00
2022-10-14T09:59:21.626Z,39.00
2022-10-14T10:01:56.496Z,43.00
2022-10-14T10:04:36.844Z,41.00
2022-10-14T10:07:31.840Z,37.00
2022-10-14T10:10:20.570Z,40.25
2022-10-14T10:12:53.224Z,40.25
2022-10-14T10:15:26.091Z,41.00
2022-10-14T10:17:58.228Z,39.25
2022-10-14T10:20:34.629Z,39.50
2022-10-14T10:23:28.154Z,38.00
2022-10-14T10:26:17.392Z,37.75
2022-10-14T10:28:51.613Z,39.50
2022-10-14T10:31:42.126Z,38.75
2022-10-14T10:34:41.854Z,38.00
2022-10-14T10:37:27.975Z,38.00
2022-10-14T10:40:26.022Z,38.50
2022-10-14T10:43:13.008Z,37.00
2022-10-14T10:46:00.085Z,38.00
2022-10-14T10:48:42.662Z,37.50
2022-10-14T10:51:18.056Z,39.00
2022-10-14T10:54:02.095Z,38.00
2022-10-14T10:56:45.955Z,40.25
2022-10-14T10:59:46.311Z,39.00
2022-10-14T11:02:58.316Z,39.25
2022-10-14T11:05:47.447Z,34.50
2022-10-14T11:09:13.044Z,39.25
2022-10-14T11:12:11.924Z,41.00
2022-10-14T11:15:08.804Z,41.00
2022-10-14T11:17:49.876Z,42.00
2022-10-14T11:20:35.303Z,41.25
2022-10-14T11:23:32.350Z,41.25
2022-10-14T11:26:10.981Z,37.00
2022-10-14T11:28:56.302Z,38.75
2022-10-14T11:31:40.616Z,40.25
2022-10-14T11:34:37.045Z,40.25
2022-10-14T11:37:18.624Z,40.00
2022-10-14T11:39:53.793Z,38.00
2022-10-14T11:42:46.311Z,39.50
2022-10-14T11:45:36.556Z,39.50
2022-10-14T11:48:20.061Z,40.50
2022-10-14T11:50:58.369Z,41.50
2022-10-14T11:53:45.774Z,40.75
2022-10-14T11:56:32.544Z,39.00
2022-10-14T11:59:11.889Z,39.25
2022-10-14T12:01:49.459Z,40.25
2022-10-14T12:04:30.022Z,41.00
2022-10-14T12:07:07.528Z,42.25
2022-10-14T12:09:45.635Z,42.50
2022-10-14T12:12:21.008Z,39.75
2022-10-14T12:14:58.475Z,40.75
2022-10-14T12:17:37.739Z,41.00
2022-10-14T12:20:25.931Z,41.00
2022-10-14T12:22:59.793Z,42.00
2022-10-14T12:25:39.832Z,40.75
2022-10-14T12:28:16.483Z,41.25
2022-10-14T12:30:50.038Z,38.50
2022-10-14T12:33:23.712Z,41.00
2022-10-14T12:36:01.309Z,41.25
2022-10-14T12:38:37.173Z,43.00
2022-10-14T12:41:41.538Z,41.25
2022-10-14T12:44:20.522Z,41.50
2022-10-14T12:46:55.455Z,37.00
2022-10-14T12:49:32.306Z,40.25
2022-10-14T12:52:07.802Z,41.00
2022-10-14T12:54:48.431Z,42.00
2022-10-14T12:57:30.888Z,39.25
2022-10-14T13:00:09.533Z,43.00
2022-10-14T13:02:48.383Z,41.25
2022-10-14T13:05:36.268Z,46.00
2022-10-14T13:08:17.161Z,43.00
2022-10-14T13:10:51.958Z,44.00
2022-10-14T13:13:53.837Z,45.33
2022-10-14T13:17:01.630Z,47.00
2022-10-14T13:19:50.321Z,46.25
2022-10-14T13:22:45.043Z,45.25
2022-10-14T13:25:23.122Z,45.00
2022-10-14T13:28:13.743Z,44.50
2022-10-14T13:30:59.544Z,47.80
2022-10-14T13:33:41.155Z,46.25
2022-10-14T13:36:20.608Z,45.50
2022-10-14T13:39:00.593Z,46.50
2022-10-14T13:41:36.142Z,47.00
2022-10-14T13:44:09.908Z,46.00
2022-10-14T13:46:46.530Z,45.25
2022-10-14T13:49:22.289Z,47.50
2022-10-14T13:51:56.127Z,46.75
2022-10-14T13:54:32.073Z,48.80
2022-10-14T13:57:38.142Z,46.00
2022-10-14T14:02:55.849Z,45.00
2022-10-14T14:05:34.924Z,51.80
2022-10-14T14:08:35.314Z,46.40
2022-10-14T14:11:16.076Z,47.00
2022-10-14T14:14:01.782Z,53.80
2022-10-14T14:16:37.409Z,51.20
2022-10-14T14:19:10.624Z,55.00
2022-10-14T14:21:42.799Z,51.60
2022-10-14T14:24:26.474Z,45.60
2022-10-14T14:27:00.428Z,53.00
2022-10-14T14:29:35.661Z,53.60
2022-10-14T14:32:09.024Z,52.60
2022-10-14T14:34:43.983Z,57.40
2022-10-14T14:37:43.785Z,53.00
2022-10-14T14:40:21.637Z,50.60
2022-10-14T14:42:57.776Z,52.80
2022-10-14T14:45:32.528Z,54.00
2022-10-14T14:48:08.717Z,52.00
2022-10-14T14:50:44.384Z,56.80
2022-10-14T14:53:22.027Z,58.60
2022-10-14T14:56:06.860Z,65.40
2022-10-14T14:58:48.836Z,61.80
2022-10-14T15:01:24.991Z,59.00
2022-10-14T15:04:11.970Z,58.60
2022-10-14T15:06:52.135Z,63.00
2022-10-14T15:09:29.844Z,63.00
2022-10-14T15:12:06.262Z,61.80
2022-10-14T15:14:48.602Z,62.20
2022-10-14T15:17:33.241Z,61.60
2022-10-14T15:20:31.792Z,60.60
2022-10-14T15:23:04.843Z,62.20
2022-10-14T15:25:36.598Z,62.60
2022-10-14T15:28:09.200Z,57.00
2022-10-14T15:30:59.066Z,57.60
2022-10-14T15:33:32.634Z,57.80
2022-10-14T15:36:05.895Z,61.60
2022-10-14T15:38:37.650Z,64.20
2022-10-14T15:41:10.061Z,58.40
2022-10-14T15:43:42.549Z,62.80
2022-10-14T15:46:50.549Z,61.40
2022-10-14T15:49:29.807Z,59.20
2022-10-14T15:52:01.812Z,63.20
2022-10-14T15:54:34.238Z,60.80
2022-10-14T15:57:08.265Z,56.80
2022-10-14T15:59:42.196Z,57.20
2022-10-14T16:02:20.978Z,55.80
2022-10-14T16:05:18.845Z,61.60
2022-10-14T16:07:46.971Z,61.40
2022-10-14T16:10:21.108Z,61.00
2022-10-14T16:12:53.711Z,52.40
2022-10-14T16:15:37.466Z,57.20
2022-10-14T16:18:11.011Z,59.00
2022-10-14T16:20:43.574Z,55.20
2022-10-14T16:23:17.988Z,56.60
2022-10-14T16:25:52.025Z,55.20
2022-10-14T16:28:24.022Z,53.60
2022-10-14T16:30:56.750Z,56.20
2022-10-14T16:33:30.665Z,57.00
2022-10-14T16:36:03.561Z,53.40
2022-10-14T16:38:35.267Z,55.60
2022-10-14T16:41:07.245Z,57.60
2022-10-14T16:43:40.148Z,57.00
2022-10-14T16:46:15.472Z,56.80
2022-10-14T16:48:49.701Z,52.80
2022-10-14T16:53:57.991Z,51.80
2022-10-14T16:56:46.488Z,54.20
2022-10-14T16:59:18.836Z,54.40
2022-10-14T17:01:52.478Z,54.60
2022-10-14T17:04:26.415Z,54.80
2022-10-14T17:07:08.823Z,56.20
2022-10-14T17:09:42.091Z,53.40
2022-10-14T17:12:14.375Z,51.20
2022-10-14T17:14:47.187Z,53.20
2022-10-14T17:17:19.613Z,59.80
2022-10-14T17:19:55.253Z,54.00
2022-10-14T17:22:27.490Z,51.20
2022-10-14T17:24:59.544Z,56.60
2022-10-14T17:27:31.278Z,54.40
2022-10-14T17:30:03.856Z,51.00
2022-10-14T17:32:36.054Z,56.20
2022-10-14T17:35:14.363Z,54.40
2022-10-14T17:37:48.510Z,49.80
2022-10-14T17:40:20.891Z,55.80
2022-10-14T17:42:53.412Z,56.00
2022-10-14T17:45:26.480Z,55.40
2022-10-14T17:47:59.188Z,48.40
2022-10-14T17:50:32.941Z,54.00
2022-10-14T17:53:04.582Z,52.40
2022-10-14T17:55:39.430Z,50.00
2022-10-14T17:58:11.786Z,51.20
2022-10-14T18:00:43.953Z,55.80
2022-10-14T18:03:16.141Z,54.40
2022-10-14T18:05:49.640Z,52.40
2022-10-14T18:08:21.450Z,56.40
2022-10-14T18:10:53.362Z,58.00
2022-10-14T18:13:25.053Z,49.00
2022-10-14T18:15:58.184Z,51.20
2022-10-14T18:18:30.443Z,52.60
2022-10-14T18:21:05.948Z,60.00
2022-10-14T18:23:40.233Z,48.60
2022-10-14T18:26:13.813Z,52.20
2022-10-14T18:28:48.359Z,55.20
2022-10-14T18:31:22.707Z,51.20
2022-10-14T18:33:56.106Z,56.20
2022-10-14T18:36:31.282Z,56.60
2022-10-14T18:39:04.384Z,57.40
2022-10-14T18:41:36.594Z,45.00
2022-10-14T18:44:10.140Z,54.60
2022-10-14T18:46:44.042Z,55.60
2022-10-14T18:49:16.207Z,55.00
2022-10-14T18:51:49.686Z,52.00
2022-10-14T18:54:25.130Z,58.40
2022-10-14T18:56:57.640Z,49.80
2022-10-14T18:59:30.878Z,51.80
2022-10-14T19:02:02.953Z,50.20
2022-10-14T19:04:35.697Z,49.00
2022-10-14T19:07:09.932Z,49.20
2022-10-14T19:09:42.574Z,52.60
2022-10-14T19:12:31.672Z,55.20
2022-10-14T19:15:04.063Z,53.00
2022-10-14T19:17:35.865Z,50.00
2022-10-14T19:20:09.996Z,53.60
2022-10-14T19:22:46.272Z,53.20
2022-10-14T19:25:19.393Z,55.00
2022-10-14T19:27:51.076Z,54.60
2022-10-14T19:30:23.298Z,54.20
2022-10-14T19:32:55.380Z,51.00
2022-10-14T19:35:27.556Z,52.20
2022-10-14T19:38:01.150Z,54.20
2022-10-14T19:40:33.394Z,54.20
2022-10-14T19:43:05.225Z,49.00
2022-10-14T19:45:37.283Z,51.20
2022-10-14T19:48:09.903Z,52.60
2022-10-14T19:50:47.644Z,49.20
2022-10-14T19:53:21.179Z,54.60
2022-10-14T19:55:53.596Z,56.40
2022-10-14T19:58:25.889Z,54.00
2022-10-14T20:00:58.750Z,54.80
2022-10-14T20:03:30.685Z,55.20
2022-10-14T20:06:04.054Z,53.80
2022-10-14T20:08:38.016Z,48.20
2022-10-14T20:11:11.795Z,55.00
2022-10-14T20:13:44.180Z,53.00
2022-10-14T20:16:17.041Z,53.40
2022-10-14T20:18:48.774Z,51.20
2022-10-14T20:21:21.329Z,51.20
2022-10-14T20:23:55.054Z,54.60
2022-10-14T20:29:03.547Z,51.40
2022-10-14T20:31:35.714Z,48.00
2022-10-14T20:34:10.251Z,47.80
2022-10-14T20:36:42.685Z,50.00
2022-10-14T20:39:16.701Z,48.20
2022-10-14T20:41:48.720Z,47.00
2022-10-14T20:44:23.818Z,49.20
2022-10-14T20:46:59.480Z,48.40
2022-10-14T20:49:31.615Z,48.20
2022-10-14T20:52:03.664Z,48.00
2022-10-14T20:54:37.583Z,47.00
2022-10-14T20:57:09.491Z,48.20
2022-10-14T20:59:43.017Z,47.80
2022-10-14T21:02:19.374Z,48.40
2022-10-14T21:04:51.338Z,48.00
2022-10-14T21:07:25.279Z,47.40
2022-10-14T21:09:59.284Z,50.00
2022-10-14T21:12:31.236Z,49.40
2022-10-14T21:15:03.459Z,49.80
2022-10-14T21:17:35.129Z,47.00
2022-10-14T21:20:08.257Z,50.00
2022-10-14T21:22:40.040Z,47.40
2022-10-14T21:25:13.451Z,48.00
2022-10-14T21:27:45.658Z,43.00
2022-10-14T21:30:18.364Z,46.00
2022-10-14T21:32:50.312Z,47.60
2022-10-14T21:35:23.086Z,47.00
2022-10-14T21:37:56.350Z,46.00
2022-10-14T21:40:30.109Z,47.00
2022-10-14T21:43:01.715Z,44.20
2022-10-14T21:45:33.757Z,44.60
2022-10-14T21:48:06.682Z,47.00
2022-10-14T21:50:38.822Z,46.60
2022-10-14T21:53:13.877Z,48.40
2022-10-14T21:55:55.985Z,47.20
2022-10-14T21:58:28.164Z,49.00
2022-10-14T22:01:05.554Z,46.50
2022-10-14T22:03:38.381Z,47.20
2022-10-14T22:06:13.356Z,43.00
2022-10-14T22:08:47.233Z,47.80
2022-10-14T22:11:23.095Z,45.25
2022-10-14T22:13:57.064Z,43.50
2022-10-14T22:16:30.466Z,45.60
2022-10-14T22:19:04.081Z,47.80
2022-10-14T22:21:38.294Z,46.00
2022-10-14T22:24:11.820Z,47.00
2022-10-14T22:26:45.573Z,45.75
2022-10-14T22:29:19.587Z,43.25
2022-10-14T22:31:51.918Z,45.20
2022-10-14T22:34:23.599Z,42.00
2022-10-14T22:36:55.980Z,46.00
2022-10-14T22:39:28.543Z,46.75
2022-10-14T22:42:02.410Z,44.00
2022-10-14T22:44:34.597Z,45.00
2022-10-14T22:47:06.889Z,45.00
2022-10-14T22:49:39.169Z,45.00
2022-10-14T22:52:11.326Z,43.75
2022-10-14T22:54:43.635Z,47.00
2022-10-14T22:57:17.543Z,42.50
2022-10-14T22:59:49.765Z,43.50
2022-10-14T23:02:22.041Z,44.25
2022-10-14T23:04:53.926Z,44.00
2022-10-14T23:07:25.774Z,44.25
2022-10-14T23:09:58.185Z,46.80
2022-10-14T23:12:32.644Z,42.67
2022-10-14T23:15:04.326Z,45.25
2022-10-14T23:17:36.710Z,43.75
2022-10-14T23:20:09.664Z,44.50
2022-10-14T23:22:41.458Z,46.60
2022-10-14T23:25:14.154Z,42.50
2022-10-14T23:27:47.831Z,43.00
2022-10-14T23:30:20.185Z,43.25
2022-10-14T23:32:52.385Z,44.50
2022-10-14T23:35:24.794Z,43.25
2022-10-14T23:37:57.134Z,42.50
2022-10-14T23:40:29.221Z,42.75
2022-10-14T23:43:03.036Z,43.25
2022-10-14T23:45:35.076Z,45.50
2022-10-14T23:48:07.911Z,45.00
2022-10-14T23:50:40.009Z,45.00
2022-10-14T23:53:13.594Z,43.00
2022-10-14T23:55:45.580Z,41.75
2022-10-14T23:58:19.595Z,42.25
